Jamesville, New York
Current Conditions -  °F | °C
As of 6:54 PM on Sunday 21 Dec 2014 (Local Time) from KSYR Reporting Station
Light Snow Light Snow  
Wind Chill: 25°   Ceiling: 2600
Heat Index: 30°   Visibility: 8mi
Dew Point: 26°   Wind: 5mph
Humidity: 85%   Direction: 90°E
Pressure: 30.34"   Gusts: NA
Location:  42.99°N, 76.07°W
Report Text: KSYR 212354Z 09004KT 8SM -SN OVC026 M01/M03 A3034 RMK AO2 SLP275 PCPN VERY LIGHT P0000 60000 T10111033 11006 21011 51012 $
Loading
Personal Weather Stations






























Interactive Weather Map New forecast layout! Learn more

10-Day Weather Forecast

Advertisements
Track Severe Weather on mobile